• Join FlightAware (Why Join?)
  • Login
  • US Flag 
12:05PM EDT


 

Airport Tracker/Info


-or-


 

Live Flight TrackerFlight Track Log ✈ EJA929 ✈ 06-Jun-2013 ✈ KASE - KSJC

Flight Track Log - Related Links

Times and Time Zones

All times are in EDT time to prevent confusion due to time zone crossing. See the EJA929 flight status page for this flight to view local times or setup timezone preferences in your user account.

Time Position Orientation Groundspeed Altitude Reporting Facility
EDT Latitude Longitude Course Direction KTS MPH feet Rate Location/Type
02:03PM 39.2733 -106.8992 285° West 225 259 10,600  Level Denver Center
02:05PM 39.2908 -106.9842 285° West 244 281 14,300 3,000 Climbing Denver Center
02:06PM 39.3231 -107.0783 294° West 289 333 16,900 2,160 Climbing Denver Center
02:07PM 39.3281 -107.2117 273° West 350 403 18,800 1,920 Climbing Denver Center
02:08PM 39.2992 -107.3567 256° West 374 430 20,900 1,320 Climbing Denver Center
02:09PM 39.2769 -107.4911 258° West 394 453 21,600 780 Climbing Denver Center
02:10PM 39.2533 -107.6356 258° West 421 484 22,600 1,200 Climbing Denver Center
02:11PM 39.2244 -107.8083 258° West 439 505 24,100 1,440 Climbing Denver Center
02:12PM 39.2000 -107.9581 258° West 445 512 25,600 1,440 Climbing Denver Center
02:13PM 39.1711 -108.1361 258° West 453 521 27,200 1,440 Climbing Denver Center
02:14PM 39.1453 -108.2928 258° West 465 535 28,700 1,500 Climbing Denver Center
02:15PM 39.1139 -108.4800 258° West 481 554 30,300 1,500 Climbing Denver Center
02:16PM 39.0847 -108.6442 257° West 488 562 31,800 1,500 Climbing Denver Center
02:17PM 39.0517 -108.8394 258° West 498 573 33,500 1,500 Climbing Denver Center
02:18PM 39.0278 -109.0094 260° West 502 578 34,900 1,380 Climbing Denver Center
02:19PM 39.0019 -109.1814 259° West 507 583 36,400 1,680 Climbing Denver Center
02:20PM 38.9728 -109.3781 259° West 501 577 38,400 1,620 Climbing Denver Center
02:21PM 38.9481 -109.5397 259° West 486 559 39,800 840 Climbing Denver Center
02:22PM 38.9278 -109.6719 259° West 479 551 40,000 60 Climbing Salt Lake Center
02:23PM 38.8992 -109.8608 259° West 480 552 40,000  Level Salt Lake Center
02:24PM 38.8747 -110.0192 259° West 475 547 40,000  Level Salt Lake Center
02:25PM 38.8489 -110.1761 258° West 470 541 40,000  Level Salt Lake Center
02:26PM 38.8222 -110.3575 259° West 465 535 40,000  Level Salt Lake Center
02:26PM 38.8158 -110.4094 261° West 462 532 40,000  Level Denver Center
02:27PM 38.8011 -110.5650 263° West 459 528 40,000  Level Denver Center
02:28PM 38.7908 -110.6956 264° West 458 527 40,000  Level Salt Lake Center
02:29PM 38.7761 -110.8511 263° West 459 528 40,000  Level Salt Lake Center
02:30PM 38.7614 -111.0139 263° West 454 522 40,000  Level Salt Lake Center
02:31PM 38.7461 -111.1753 263° West 457 526 40,000  Level Salt Lake Center
02:32PM 38.7278 -111.3683 263° West 458 527 40,000  Level Salt Lake Center
02:33PM 38.7117 -111.5278 263° West 455 524 40,000  Level Salt Lake Center
02:34PM 38.6961 -111.6886 263° West 457 526 40,000  Level Salt Lake Center
02:35PM 38.6803 -111.8483 263° West 455 524 40,000  Level Salt Lake Center
02:36PM 38.6639 -112.0081 263° West 454 522 40,000  Level Salt Lake Center
02:37PM 38.6464 -112.1667 262° West 454 522 40,000  Level Salt Lake Center
02:38PM 38.6264 -112.3586 262° West 455 524 40,000  Level Salt Lake Center
02:39PM 38.6086 -112.5186 262° West 457 526 40,000  Level Salt Lake Center
02:40PM 38.5911 -112.6772 262° West 455 524 40,000  Level Salt Lake Center
02:41PM 38.5733 -112.8369 262° West 455 524 40,000  Level Salt Lake Center
02:43PM 38.5561 -112.9950 262° West 454 522 40,000  Level Salt Lake Center
02:44PM 38.5350 -113.1853 262° West 454 522 40,000  Level Salt Lake Center
02:45PM 38.5167 -113.3450 262° West 458 527 40,000  Level Salt Lake Center
02:46PM 38.4983 -113.5033 262° West 455 524 40,000  Level Salt Lake Center
02:47PM 38.4794 -113.6597 261° West 452 520 40,000  Level Salt Lake Center
02:48PM 38.4614 -113.8172 262° West 450 518 40,000  Level Salt Lake Center
02:49PM 38.4417 -113.9764 261° West 455 524 40,000  Level Salt Lake Center
02:50PM 38.4189 -114.1681 261° West 457 526 40,000  Level Salt Lake Center
02:51PM 38.3989 -114.3269 261° West 457 526 40,000  Level Salt Lake Center
02:52PM 38.3783 -114.4861 261° West 456 525 40,000  Level Salt Lake Center
02:53PM 38.3578 -114.6444 261° West 455 524 40,000  Level Salt Lake Center
02:54PM 38.3389 -114.8025 261° West 453 521 40,000  Level Salt Lake Center
02:55PM 38.3178 -114.9611 260° West 455 524 40,000  Level Salt Lake Center
02:56PM 38.2931 -115.1494 261° West 451 519 40,000  Level Salt Lake Center
02:57PM 38.2722 -115.3067 260° West 452 520 40,000  Level Salt Lake Center
02:58PM 38.2533 -115.4497 260° West 452 520 40,000  Level Salt Lake Center
02:59PM 38.2272 -115.6386 260° West 452 520 40,000  Level Salt Lake Center
03:00PM 38.2072 -115.7961 261° West 452 520 40,000  Level Salt Lake Center
03:01PM 38.1850 -115.9539 260° West 453 521 40,000  Level Salt Lake Center
03:02PM 38.1631 -116.1092 260° West 447 514 40,000  Level Salt Lake Center
03:03PM 38.1411 -116.2656 260° West 449 517 40,000  Level Salt Lake Center
03:04PM 38.1192 -116.4217 260° West 451 519 40,000  Level Salt Lake Center
03:05PM 38.0964 -116.5781 260° West 449 517 40,000  Level Salt Lake Center
03:06PM 38.0689 -116.7661 260° West 451 519 40,000  Level Salt Lake Center
03:07PM 38.0464 -116.9208 260° West 448 516 40,000  Level Oakland Center
03:08PM 38.0128 -117.0744 255° West 445 512 40,000  Level Oakland Center
03:09PM 37.9617 -117.2250 247° West 452 520 40,000  Level Salt Lake Center
03:10PM 37.9092 -117.3714 246° West 451 519 40,000  Level Salt Lake Center
03:11PM 37.8567 -117.5161 245° Southwest 449 517 40,000  Level Oakland Center
03:12PM 37.8044 -117.6594 245° Southwest 448 516 40,000  Level Oakland Center
03:13PM 37.7525 -117.8025 245° Southwest 446 513 40,000 -300 Level Oakland Center
03:15PM 37.7003 -117.9467 245° Southwest 450 518 39,500 -900 Descending Oakland Center
03:16PM 37.6342 -118.1253 245° Southwest 467 537 38,200 -1,200 Descending Oakland Center
03:17PM 37.5769 -118.2808 245° Southwest 483 556 37,100 -1,080 Descending Oakland Center
03:18PM 37.5397 -118.4472 254° West 492 566 36,000 -1,140 Descending Oakland Center
03:19PM 37.5139 -118.6219 259° West 503 579 34,800 -1,200 Descending Oakland Center
03:20PM 37.4839 -118.8106 259° West 506 582 33,600 -1,080 Descending Oakland Center
03:21PM 37.4597 -118.9656 259° West 509 586 32,600 -1,080 Descending Oakland Center
03:22PM 37.4314 -119.1425 259° West 517 595 31,500 -1,200 Descending Oakland Center
03:23PM 37.3967 -119.3511 258° West 512 589 30,200 -1,140 Descending Oakland Center
03:24PM 37.3714 -119.5058 258° West 511 588 29,200 -1,140 Descending Oakland Center
03:25PM 37.3389 -119.6972 258° West 507 583 27,900 -1,080 Descending Oakland Center
03:26PM 37.3136 -119.8511 258° West 505 581 27,000 -1,500 Descending Oakland Center
03:27PM 37.2781 -120.0578 258° West 503 579 24,900 -2,580 Descending Oakland Center
03:28PM 37.2494 -120.2247 258° West 493 567 21,700 -3,120 Descending Oakland Center
03:29PM 37.2219 -120.3856 258° West 476 548 18,600 -3,000 Descending Oakland Center
03:30PM 37.2000 -120.5000 256° West 499 574 16,400 -2,700 Descending Northern Cal TRACON
03:31PM 37.1667 -120.6500 254° West 418 481 13,600 -2,640 Descending Northern Cal TRACON
03:32PM 37.1333 -120.8000 254° West 426 490 10,900 -1,920 Descending Northern Cal TRACON
03:33PM 37.1000 -120.9333 253° West 412 474 10,000 -780 Descending Northern Cal TRACON
03:33PM 37.0978 -120.9622 264° West 414 476 10,000  Level Oakland Center
03:34PM 37.0683 -121.0967 255° West 409 471 10,000  Level Oakland Center
03:35PM 37.0556 -121.2378 264° West 417 480 10,000 -60 Level Oakland Center
03:36PM 37.0833 -121.3600 286° West 379 436 9,900 -1,020 Descending Oakland Center
03:37PM 37.1125 -121.4836 287° West 320 368 8,000 -1,560 Descending Oakland Center
03:38PM 37.1331 -121.5758 286° West 285 328 6,800 -1,260 Descending Oakland Center
03:39PM 37.1547 -121.6703 286° West 281 323 5,500 -1,200 Descending Oakland Center
03:40PM 37.1892 -121.7483 299° West 268 308 4,400 -1,140 Descending Oakland Center
03:41PM 37.2394 -121.7958 323° Northwest 241 277 3,200 -1,260 Descending Oakland Center
03:42PM 37.2833 -121.8450 318° Northwest 224 258 1,900 -1,140 Descending Oakland Center
03:43PM 37.3228 -121.8892 318° Northwest 204 235 900 -840 Descending Oakland Center
03:44PM 37.3506 -121.9189 320° Northwest 160 184 200 -720 Descending Oakland Center
03:46PM 37.3500 -121.9167 North  Level FlightAware Approximate
03:53PM 37.3627 -121.9291 North  Level Estimated